sensor_id;sensor_type;location;lat;lon;timestamp;P1;durP1;ratioP1;P2;durP2;ratioP2
25549;SDS011;13444;50.562;7.262;2022-10-15T00:02:08;5.30;;;4.75;;
25549;SDS011;13444;50.562;7.262;2022-10-15T00:04:34;5.40;;;4.38;;
25549;SDS011;13444;50.562;7.262;2022-10-15T00:07:00;4.72;;;4.22;;
25549;SDS011;13444;50.562;7.262;2022-10-15T00:09:25;4.40;;;4.00;;
25549;SDS011;13444;50.562;7.262;2022-10-15T00:11:51;5.88;;;5.20;;
25549;SDS011;13444;50.562;7.262;2022-10-15T00:14:16;5.88;;;4.80;;
25549;SDS011;13444;50.562;7.262;2022-10-15T00:16:42;5.60;;;4.85;;
25549;SDS011;13444;50.562;7.262;2022-10-15T00:19:08;5.55;;;4.38;;
25549;SDS011;13444;50.562;7.262;2022-10-15T00:21:34;6.35;;;4.75;;
25549;SDS011;13444;50.562;7.262;2022-10-15T00:24:00;6.00;;;5.00;;
25549;SDS011;13444;50.562;7.262;2022-10-15T00:26:27;4.95;;;4.18;;
25549;SDS011;13444;50.562;7.262;2022-10-15T00:28:55;5.45;;;4.45;;
25549;SDS011;13444;50.562;7.262;2022-10-15T00:31:23;5.68;;;4.70;;
25549;SDS011;13444;50.562;7.262;2022-10-15T00:33:51;7.10;;;4.72;;
25549;SDS011;13444;50.562;7.262;2022-10-15T00:36:20;6.97;;;5.32;;
25549;SDS011;13444;50.562;7.262;2022-10-15T00:38:50;7.00;;;5.63;;
25549;SDS011;13444;50.562;7.262;2022-10-15T00:41:24;6.93;;;5.68;;
25549;SDS011;13444;50.562;7.262;2022-10-15T00:43:59;6.68;;;5.72;;
25549;SDS011;13444;50.562;7.262;2022-10-15T00:46:30;6.47;;;5.68;;
25549;SDS011;13444;50.562;7.262;2022-10-15T00:49:11;14.07;;;8.63;;
25549;SDS011;13444;50.562;7.262;2022-10-15T00:51:55;9.90;;;7.68;;
25549;SDS011;13444;50.562;7.262;2022-10-15T00:54:24;7.57;;;6.60;;
25549;SDS011;13444;50.562;7.262;2022-10-15T00:56:52;8.07;;;6.50;;
25549;SDS011;13444;50.562;7.262;2022-10-15T00:59:19;8.32;;;6.18;;
25549;SDS011;13444;50.562;7.262;2022-10-15T01:01:48;6.80;;;5.93;;
25549;SDS011;13444;50.562;7.262;2022-10-15T01:04:13;7.60;;;6.72;;
25549;SDS011;13444;50.562;7.262;2022-10-15T01:06:41;8.02;;;6.60;;
25549;SDS011;13444;50.562;7.262;2022-10-15T01:09:07;9.35;;;6.72;;
25549;SDS011;13444;50.562;7.262;2022-10-15T01:26:06;6.93;;;5.20;;
25549;SDS011;13444;50.562;7.262;2022-10-15T01:28:42;8.15;;;5.20;;
25549;SDS011;13444;50.562;7.262;2022-10-15T01:34:27;7.38;;;4.63;;
25549;SDS011;13444;50.562;7.262;2022-10-15T01:40:16;6.38;;;5.35;;
25549;SDS011;13444;50.562;7.262;2022-10-15T01:42:56;5.88;;;5.28;;
25549;SDS011;13444;50.562;7.262;2022-10-15T01:48:12;5.95;;;4.65;;
25549;SDS011;13444;50.562;7.262;2022-10-15T01:50:41;5.63;;;4.78;;
25549;SDS011;13444;50.562;7.262;2022-10-15T01:53:10;5.88;;;4.80;;
25549;SDS011;13444;50.562;7.262;2022-10-15T01:55:40;8.23;;;5.10;;
25549;SDS011;13444;50.562;7.262;2022-10-15T01:58:08;5.05;;;4.55;;
25549;SDS011;13444;50.562;7.262;2022-10-15T02:00:37;6.40;;;4.65;;
25549;SDS011;13444;50.562;7.262;2022-10-15T02:03:03;5.50;;;4.90;;
25549;SDS011;13444;50.562;7.262;2022-10-15T02:05:31;5.30;;;4.75;;
25549;SDS011;13444;50.562;7.262;2022-10-15T02:08:06;5.40;;;4.90;;
25549;SDS011;13444;50.562;7.262;2022-10-15T02:13:31;7.65;;;4.80;;
25549;SDS011;13444;50.562;7.262;2022-10-15T02:18:51;6.00;;;4.95;;
25549;SDS011;13444;50.562;7.262;2022-10-15T02:21:40;5.53;;;4.78;;
25549;SDS011;13444;50.562;7.262;2022-10-15T02:24:26;5.05;;;4.55;;
25549;SDS011;13444;50.562;7.262;2022-10-15T02:26:57;7.20;;;4.28;;
25549;SDS011;13444;50.562;7.262;2022-10-15T02:29:25;6.07;;;5.15;;
25549;SDS011;13444;50.562;7.262;2022-10-15T02:31:55;5.15;;;4.65;;
25549;SDS011;13444;50.562;7.262;2022-10-15T02:34:24;5.80;;;5.13;;
25549;SDS011;13444;50.562;7.262;2022-10-15T02:36:54;6.85;;;5.18;;
25549;SDS011;13444;50.562;7.262;2022-10-15T02:39:22;6.05;;;5.50;;
25549;SDS011;13444;50.562;7.262;2022-10-15T02:41:48;5.38;;;4.88;;
25549;SDS011;13444;50.562;7.262;2022-10-15T02:44:15;5.72;;;5.13;;
25549;SDS011;13444;50.562;7.262;2022-10-15T02:46:41;6.28;;;5.35;;
25549;SDS011;13444;50.562;7.262;2022-10-15T02:49:07;7.72;;;5.03;;
25549;SDS011;13444;50.562;7.262;2022-10-15T02:51:33;6.72;;;5.00;;
25549;SDS011;13444;50.562;7.262;2022-10-15T02:54:00;6.47;;;5.43;;
25549;SDS011;13444;50.562;7.262;2022-10-15T02:56:26;6.72;;;5.25;;
25549;SDS011;13444;50.562;7.262;2022-10-15T02:58:52;6.57;;;5.18;;
25549;SDS011;13444;50.562;7.262;2022-10-15T03:01:18;8.98;;;5.68;;
25549;SDS011;13444;50.562;7.262;2022-10-15T03:03:44;6.00;;;4.20;;
25549;SDS011;13444;50.562;7.262;2022-10-15T03:06:09;5.15;;;4.65;;
25549;SDS011;13444;50.562;7.262;2022-10-15T03:08:35;7.00;;;4.50;;
25549;SDS011;13444;50.562;7.262;2022-10-15T03:11:01;6.45;;;5.57;;
25549;SDS011;13444;50.562;7.262;2022-10-15T03:13:27;5.03;;;4.50;;
25549;SDS011;13444;50.562;7.262;2022-10-15T03:15:53;6.00;;;5.00;;
25549;SDS011;13444;50.562;7.262;2022-10-15T03:18:18;5.10;;;4.60;;
25549;SDS011;13444;50.562;7.262;2022-10-15T03:20:44;4.85;;;4.25;;
25549;SDS011;13444;50.562;7.262;2022-10-15T03:23:16;5.57;;;4.30;;
25549;SDS011;13444;50.562;7.262;2022-10-15T03:25:42;7.05;;;3.90;;
25549;SDS011;13444;50.562;7.262;2022-10-15T03:28:07;8.57;;;4.32;;
25549;SDS011;13444;50.562;7.262;2022-10-15T03:30:33;4.95;;;4.25;;
25549;SDS011;13444;50.562;7.262;2022-10-15T03:32:58;4.35;;;3.80;;
25549;SDS011;13444;50.562;7.262;2022-10-15T03:35:24;5.05;;;3.90;;
25549;SDS011;13444;50.562;7.262;2022-10-15T03:37:49;5.03;;;3.63;;
25549;SDS011;13444;50.562;7.262;2022-10-15T03:40:15;4.35;;;3.60;;
25549;SDS011;13444;50.562;7.262;2022-10-15T03:42:40;4.80;;;3.92;;
25549;SDS011;13444;50.562;7.262;2022-10-15T03:45:06;6.45;;;3.63;;
25549;SDS011;13444;50.562;7.262;2022-10-15T03:47:32;4.20;;;3.75;;
25549;SDS011;13444;50.562;7.262;2022-10-15T03:49:58;4.05;;;3.65;;
25549;SDS011;13444;50.562;7.262;2022-10-15T03:52:23;4.07;;;3.58;;
25549;SDS011;13444;50.562;7.262;2022-10-15T03:54:49;6.45;;;4.07;;
25549;SDS011;13444;50.562;7.262;2022-10-15T03:57:14;4.63;;;3.95;;
25549;SDS011;13444;50.562;7.262;2022-10-15T03:59:40;4.82;;;3.60;;
25549;SDS011;13444;50.562;7.262;2022-10-15T04:02:05;5.10;;;4.22;;
25549;SDS011;13444;50.562;7.262;2022-10-15T04:04:31;6.07;;;5.15;;
25549;SDS011;13444;50.562;7.262;2022-10-15T04:06:56;6.75;;;4.70;;
25549;SDS011;13444;50.562;7.262;2022-10-15T04:09:22;7.53;;;4.95;;
25549;SDS011;13444;50.562;7.262;2022-10-15T04:11:47;7.68;;;5.30;;
25549;SDS011;13444;50.562;7.262;2022-10-15T04:14:13;8.18;;;5.43;;
25549;SDS011;13444;50.562;7.262;2022-10-15T04:16:38;6.38;;;4.88;;
25549;SDS011;13444;50.562;7.262;2022-10-15T04:19:04;7.13;;;4.95;;
25549;SDS011;13444;50.562;7.262;2022-10-15T04:21:29;6.43;;;4.40;;
25549;SDS011;13444;50.562;7.262;2022-10-15T04:23:55;5.05;;;4.25;;
25549;SDS011;13444;50.562;7.262;2022-10-15T04:26:20;5.70;;;3.65;;
25549;SDS011;13444;50.562;7.262;2022-10-15T04:28:47;9.20;;;3.92;;
25549;SDS011;13444;50.562;7.262;2022-10-15T04:31:12;6.00;;;4.03;;
25549;SDS011;13444;50.562;7.262;2022-10-15T04:33:38;6.80;;;3.55;;
25549;SDS011;13444;50.562;7.262;2022-10-15T04:36:04;9.98;;;4.68;;
25549;SDS011;13444;50.562;7.262;2022-10-15T04:38:32;7.10;;;4.22;;
25549;SDS011;13444;50.562;7.262;2022-10-15T04:40:58;10.07;;;3.67;;
25549;SDS011;13444;50.562;7.262;2022-10-15T04:43:26;5.75;;;3.60;;
25549;SDS011;13444;50.562;7.262;2022-10-15T04:45:54;4.18;;;3.42;;
25549;SDS011;13444;50.562;7.262;2022-10-15T04:48:21;4.18;;;3.28;;
25549;SDS011;13444;50.562;7.262;2022-10-15T04:50:46;5.25;;;3.28;;
25549;SDS011;13444;50.562;7.262;2022-10-15T04:53:12;7.38;;;3.25;;
25549;SDS011;13444;50.562;7.262;2022-10-15T04:55:37;4.63;;;3.00;;
25549;SDS011;13444;50.562;7.262;2022-10-15T04:58:03;4.03;;;3.20;;
25549;SDS011;13444;50.562;7.262;2022-10-15T05:00:28;4.55;;;3.10;;
25549;SDS011;13444;50.562;7.262;2022-10-15T05:02:54;6.70;;;3.10;;
25549;SDS011;13444;50.562;7.262;2022-10-15T05:05:20;4.63;;;3.42;;
25549;SDS011;13444;50.562;7.262;2022-10-15T05:07:45;4.65;;;3.20;;
25549;SDS011;13444;50.562;7.262;2022-10-15T05:10:11;9.98;;;3.35;;
25549;SDS011;13444;50.562;7.262;2022-10-15T05:12:36;6.57;;;2.95;;
25549;SDS011;13444;50.562;7.262;2022-10-15T05:15:02;3.60;;;3.20;;
25549;SDS011;13444;50.562;7.262;2022-10-15T05:17:28;3.65;;;2.35;;
25549;SDS011;13444;50.562;7.262;2022-10-15T05:19:54;3.97;;;2.92;;
25549;SDS011;13444;50.562;7.262;2022-10-15T05:22:20;5.68;;;3.20;;
25549;SDS011;13444;50.562;7.262;2022-10-15T05:24:45;5.35;;;3.10;;
25549;SDS011;13444;50.562;7.262;2022-10-15T05:27:11;4.05;;;2.78;;
25549;SDS011;13444;50.562;7.262;2022-10-15T05:29:37;4.40;;;2.40;;
25549;SDS011;13444;50.562;7.262;2022-10-15T05:32:03;3.40;;;2.80;;
25549;SDS011;13444;50.562;7.262;2022-10-15T05:34:29;4.03;;;2.95;;
25549;SDS011;13444;50.562;7.262;2022-10-15T05:36:55;5.22;;;2.70;;
25549;SDS011;13444;50.562;7.262;2022-10-15T05:39:21;6.30;;;3.15;;
25549;SDS011;13444;50.562;7.262;2022-10-15T05:41:46;3.50;;;2.45;;
25549;SDS011;13444;50.562;7.262;2022-10-15T05:44:13;4.50;;;2.78;;
25549;SDS011;13444;50.562;7.262;2022-10-15T05:46:39;3.10;;;2.70;;
25549;SDS011;13444;50.562;7.262;2022-10-15T05:49:04;6.30;;;2.55;;
25549;SDS011;13444;50.562;7.262;2022-10-15T05:51:30;4.97;;;2.40;;
25549;SDS011;13444;50.562;7.262;2022-10-15T05:53:56;5.72;;;2.50;;
25549;SDS011;13444;50.562;7.262;2022-10-15T05:56:22;3.33;;;2.63;;
25549;SDS011;13444;50.562;7.262;2022-10-15T05:58:48;4.57;;;2.28;;
25549;SDS011;13444;50.562;7.262;2022-10-15T06:01:14;2.80;;;2.22;;
25549;SDS011;13444;50.562;7.262;2022-10-15T06:03:39;4.50;;;2.58;;
25549;SDS011;13444;50.562;7.262;2022-10-15T06:06:13;4.22;;;2.53;;
25549;SDS011;13444;50.562;7.262;2022-10-15T06:08:40;3.33;;;2.83;;
25549;SDS011;13444;50.562;7.262;2022-10-15T06:11:06;4.50;;;3.13;;
25549;SDS011;13444;50.562;7.262;2022-10-15T06:13:31;2.90;;;2.28;;
25549;SDS011;13444;50.562;7.262;2022-10-15T06:15:57;4.30;;;2.30;;
25549;SDS011;13444;50.562;7.262;2022-10-15T06:18:22;4.05;;;2.90;;
25549;SDS011;13444;50.562;7.262;2022-10-15T06:20:51;3.08;;;2.50;;
25549;SDS011;13444;50.562;7.262;2022-10-15T06:23:19;3.83;;;2.38;;
25549;SDS011;13444;50.562;7.262;2022-10-15T06:25:45;4.05;;;2.65;;
25549;SDS011;13444;50.562;7.262;2022-10-15T06:28:11;2.40;;;2.08;;
25549;SDS011;13444;50.562;7.262;2022-10-15T06:30:37;3.60;;;2.55;;
25549;SDS011;13444;50.562;7.262;2022-10-15T06:33:02;11.60;;;3.47;;
25549;SDS011;13444;50.562;7.262;2022-10-15T06:35:28;8.52;;;3.15;;
25549;SDS011;13444;50.562;7.262;2022-10-15T06:37:59;6.60;;;2.72;;
25549;SDS011;13444;50.562;7.262;2022-10-15T06:40:25;4.28;;;2.42;;
25549;SDS011;13444;50.562;7.262;2022-10-15T06:42:51;4.70;;;2.60;;
25549;SDS011;13444;50.562;7.262;2022-10-15T06:45:17;8.05;;;2.35;;
25549;SDS011;13444;50.562;7.262;2022-10-15T06:47:42;6.05;;;2.50;;
25549;SDS011;13444;50.562;7.262;2022-10-15T06:50:08;8.43;;;2.33;;
25549;SDS011;13444;50.562;7.262;2022-10-15T06:52:34;6.50;;;2.75;;
25549;SDS011;13444;50.562;7.262;2022-10-15T06:54:59;7.88;;;2.70;;
25549;SDS011;13444;50.562;7.262;2022-10-15T06:57:26;4.20;;;2.45;;
25549;SDS011;13444;50.562;7.262;2022-10-15T06:59:52;4.65;;;3.10;;
25549;SDS011;13444;50.562;7.262;2022-10-15T07:02:18;6.22;;;3.60;;
25549;SDS011;13444;50.562;7.262;2022-10-15T07:04:47;4.35;;;3.55;;
25549;SDS011;13444;50.562;7.262;2022-10-15T07:07:13;6.97;;;2.88;;
25549;SDS011;13444;50.562;7.262;2022-10-15T07:09:39;5.00;;;3.30;;
25549;SDS011;13444;50.562;7.262;2022-10-15T07:12:04;6.40;;;3.35;;
25549;SDS011;13444;50.562;7.262;2022-10-15T07:14:30;3.95;;;2.92;;
25549;SDS011;13444;50.562;7.262;2022-10-15T07:16:56;3.83;;;2.97;;
25549;SDS011;13444;50.562;7.262;2022-10-15T07:19:22;4.68;;;3.78;;
25549;SDS011;13444;50.562;7.262;2022-10-15T07:21:47;4.88;;;3.15;;
25549;SDS011;13444;50.562;7.262;2022-10-15T07:24:13;5.28;;;3.22;;
25549;SDS011;13444;50.562;7.262;2022-10-15T07:26:38;6.45;;;3.40;;
25549;SDS011;13444;50.562;7.262;2022-10-15T07:29:04;5.68;;;3.55;;
25549;SDS011;13444;50.562;7.262;2022-10-15T07:31:30;4.50;;;3.20;;
25549;SDS011;13444;50.562;7.262;2022-10-15T07:33:56;5.60;;;3.63;;
25549;SDS011;13444;50.562;7.262;2022-10-15T07:36:21;5.20;;;3.63;;
25549;SDS011;13444;50.562;7.262;2022-10-15T07:38:47;9.27;;;3.92;;
25549;SDS011;13444;50.562;7.262;2022-10-15T07:41:12;8.32;;;4.50;;
25549;SDS011;13444;50.562;7.262;2022-10-15T07:43:38;4.97;;;3.65;;
25549;SDS011;13444;50.562;7.262;2022-10-15T07:46:04;6.97;;;4.07;;
25549;SDS011;13444;50.562;7.262;2022-10-15T07:48:30;7.07;;;4.60;;
25549;SDS011;13444;50.562;7.262;2022-10-15T07:50:56;4.32;;;3.50;;
25549;SDS011;13444;50.562;7.262;2022-10-15T07:53:23;7.50;;;4.13;;
25549;SDS011;13444;50.562;7.262;2022-10-15T07:55:49;5.13;;;4.00;;
25549;SDS011;13444;50.562;7.262;2022-10-15T07:58:15;7.65;;;4.32;;
25549;SDS011;13444;50.562;7.262;2022-10-15T08:00:41;6.93;;;4.05;;
25549;SDS011;13444;50.562;7.262;2022-10-15T08:03:06;6.55;;;3.92;;
25549;SDS011;13444;50.562;7.262;2022-10-15T08:05:32;8.40;;;4.40;;
25549;SDS011;13444;50.562;7.262;2022-10-15T08:07:58;6.65;;;3.88;;
25549;SDS011;13444;50.562;7.262;2022-10-15T08:10:24;3.60;;;3.17;;
25549;SDS011;13444;50.562;7.262;2022-10-15T08:12:50;5.95;;;3.78;;
25549;SDS011;13444;50.562;7.262;2022-10-15T08:15:16;4.35;;;3.03;;
25549;SDS011;13444;50.562;7.262;2022-10-15T08:17:41;5.20;;;3.50;;
25549;SDS011;13444;50.562;7.262;2022-10-15T08:20:07;4.05;;;3.13;;
25549;SDS011;13444;50.562;7.262;2022-10-15T08:22:33;3.42;;;2.45;;
25549;SDS011;13444;50.562;7.262;2022-10-15T08:24:59;5.00;;;2.50;;
25549;SDS011;13444;50.562;7.262;2022-10-15T08:27:24;2.72;;;2.28;;
25549;SDS011;13444;50.562;7.262;2022-10-15T08:29:50;2.65;;;1.83;;
25549;SDS011;13444;50.562;7.262;2022-10-15T08:32:16;2.45;;;1.75;;
25549;SDS011;13444;50.562;7.262;2022-10-15T08:34:41;6.65;;;1.80;;
25549;SDS011;13444;50.562;7.262;2022-10-15T08:37:07;1.80;;;1.63;;
25549;SDS011;13444;50.562;7.262;2022-10-15T08:39:33;4.15;;;1.70;;
25549;SDS011;13444;50.562;7.262;2022-10-15T08:42:00;3.38;;;1.73;;
25549;SDS011;13444;50.562;7.262;2022-10-15T08:44:35;3.33;;;1.20;;
25549;SDS011;13444;50.562;7.262;2022-10-15T08:47:06;1.10;;;1.00;;
25549;SDS011;13444;50.562;7.262;2022-10-15T08:52:15;3.58;;;1.70;;
25549;SDS011;13444;50.562;7.262;2022-10-15T08:55:01;1.50;;;1.30;;
25549;SDS011;13444;50.562;7.262;2022-10-15T09:00:20;3.20;;;1.30;;
25549;SDS011;13444;50.562;7.262;2022-10-15T09:02:53;2.65;;;1.17;;
25549;SDS011;13444;50.562;7.262;2022-10-15T09:13:50;1.38;;;1.08;;
25549;SDS011;13444;50.562;7.262;2022-10-15T09:16:38;0.80;;;0.77;;
25549;SDS011;13444;50.562;7.262;2022-10-15T09:19:03;2.67;;;1.02;;
25549;SDS011;13444;50.562;7.262;2022-10-15T09:21:36;1.45;;;0.90;;
25549;SDS011;13444;50.562;7.262;2022-10-15T09:24:03;1.15;;;0.82;;
25549;SDS011;13444;50.562;7.262;2022-10-15T09:29:31;1.42;;;0.63;;
25549;SDS011;13444;50.562;7.262;2022-10-15T09:32:08;1.55;;;0.60;;
25549;SDS011;13444;50.562;7.262;2022-10-15T09:34:49;1.00;;;0.52;;
25549;SDS011;13444;50.562;7.262;2022-10-15T09:37:32;0.75;;;0.52;;
25549;SDS011;13444;50.562;7.262;2022-10-15T09:42:52;1.80;;;0.65;;
25549;SDS011;13444;50.562;7.262;2022-10-15T09:45:21;0.60;;;0.55;;
25549;SDS011;13444;50.562;7.262;2022-10-15T09:47:50;0.52;;;0.50;;
25549;SDS011;13444;50.562;7.262;2022-10-15T09:50:16;1.58;;;0.45;;
25549;SDS011;13444;50.562;7.262;2022-10-15T09:55:40;1.45;;;0.85;;
25549;SDS011;13444;50.562;7.262;2022-10-15T09:58:11;2.85;;;0.82;;
25549;SDS011;13444;50.562;7.262;2022-10-15T10:00:51;1.00;;;0.60;;
25549;SDS011;13444;50.562;7.262;2022-10-15T10:03:17;1.25;;;0.73;;
25549;SDS011;13444;50.562;7.262;2022-10-15T10:05:42;0.60;;;0.47;;
25549;SDS011;13444;50.562;7.262;2022-10-15T10:08:17;1.00;;;0.60;;
25549;SDS011;13444;50.562;7.262;2022-10-15T10:10:55;1.35;;;0.80;;
25549;SDS011;13444;50.562;7.262;2022-10-15T10:13:45;0.75;;;0.70;;
25549;SDS011;13444;50.562;7.262;2022-10-15T10:16:15;0.80;;;0.50;;
25549;SDS011;13444;50.562;7.262;2022-10-15T10:18:42;1.90;;;0.90;;
25549;SDS011;13444;50.562;7.262;2022-10-15T10:21:24;3.75;;;0.80;;
25549;SDS011;13444;50.562;7.262;2022-10-15T10:23:55;0.40;;;0.35;;
25549;SDS011;13444;50.562;7.262;2022-10-15T10:26:42;0.45;;;0.45;;
25549;SDS011;13444;50.562;7.262;2022-10-15T10:29:10;0.43;;;0.38;;
25549;SDS011;13444;50.562;7.262;2022-10-15T10:31:44;0.20;;;0.20;;
25549;SDS011;13444;50.562;7.262;2022-10-15T10:34:15;0.50;;;0.38;;
25549;SDS011;13444;50.562;7.262;2022-10-15T10:36:51;0.43;;;0.40;;
25549;SDS011;13444;50.562;7.262;2022-10-15T10:39:24;1.65;;;0.32;;
25549;SDS011;13444;50.562;7.262;2022-10-15T10:41:55;0.30;;;0.30;;
25549;SDS011;13444;50.562;7.262;2022-10-15T10:49:45;3.20;;;0.50;;
25549;SDS011;13444;50.562;7.262;2022-10-15T10:52:28;1.75;;;0.30;;
25549;SDS011;13444;50.562;7.262;2022-10-15T10:57:44;0.60;;;0.40;;
25549;SDS011;13444;50.562;7.262;2022-10-15T11:00:29;0.28;;;0.28;;
25549;SDS011;13444;50.562;7.262;2022-10-15T11:03:17;0.88;;;0.30;;
25549;SDS011;13444;50.562;7.262;2022-10-15T11:08:33;0.55;;;0.30;;
25549;SDS011;13444;50.562;7.262;2022-10-15T11:11:03;3.90;;;0.43;;
25549;SDS011;13444;50.562;7.262;2022-10-15T11:13:44;1.08;;;0.25;;
25549;SDS011;13444;50.562;7.262;2022-10-15T11:22:12;0.40;;;0.30;;
25549;SDS011;13444;50.562;7.262;2022-10-15T11:24:48;0.98;;;0.43;;
25549;SDS011;13444;50.562;7.262;2022-10-15T11:30:29;0.68;;;0.40;;
25549;SDS011;13444;50.562;7.262;2022-10-15T11:33:07;1.15;;;0.40;;
25549;SDS011;13444;50.562;7.262;2022-10-15T11:41:24;0.70;;;0.45;;
25549;SDS011;13444;50.562;7.262;2022-10-15T11:44:27;0.80;;;0.40;;
25549;SDS011;13444;50.562;7.262;2022-10-15T11:55:33;0.95;;;0.50;;
25549;SDS011;13444;50.562;7.262;2022-10-15T11:58:13;0.95;;;0.40;;
25549;SDS011;13444;50.562;7.262;2022-10-15T12:00:48;1.75;;;0.50;;
25549;SDS011;13444;50.562;7.262;2022-10-15T12:03:17;0.70;;;0.50;;
25549;SDS011;13444;50.562;7.262;2022-10-15T12:05:48;1.65;;;0.30;;
25549;SDS011;13444;50.562;7.262;2022-10-15T12:08:17;0.80;;;0.40;;
25549;SDS011;13444;50.562;7.262;2022-10-15T12:10:49;0.85;;;0.40;;
25549;SDS011;13444;50.562;7.262;2022-10-15T12:13:39;0.90;;;0.40;;
25549;SDS011;13444;50.562;7.262;2022-10-15T12:16:21;2.25;;;0.65;;
25549;SDS011;13444;50.562;7.262;2022-10-15T12:21:30;0.40;;;0.38;;
25549;SDS011;13444;50.562;7.262;2022-10-15T12:23:59;0.40;;;0.30;;
25549;SDS011;13444;50.562;7.262;2022-10-15T12:26:27;0.22;;;0.22;;
25549;SDS011;13444;50.562;7.262;2022-10-15T12:28:57;1.38;;;0.30;;
25549;SDS011;13444;50.562;7.262;2022-10-15T12:31:24;0.63;;;0.22;;
25549;SDS011;13444;50.562;7.262;2022-10-15T12:34:19;0.50;;;0.30;;
25549;SDS011;13444;50.562;7.262;2022-10-15T12:37:02;0.28;;;0.28;;
25549;SDS011;13444;50.562;7.262;2022-10-15T12:39:30;0.20;;;0.20;;
25549;SDS011;13444;50.562;7.262;2022-10-15T12:41:56;0.20;;;0.20;;
25549;SDS011;13444;50.562;7.262;2022-10-15T12:44:32;0.68;;;0.40;;
25549;SDS011;13444;50.562;7.262;2022-10-15T12:46:58;1.08;;;0.88;;
25549;SDS011;13444;50.562;7.262;2022-10-15T12:51:55;0.40;;;0.30;;
25549;SDS011;13444;50.562;7.262;2022-10-15T12:54:40;3.60;;;0.30;;
25549;SDS011;13444;50.562;7.262;2022-10-15T13:02:49;0.25;;;0.20;;
25549;SDS011;13444;50.562;7.262;2022-10-15T13:07:56;0.60;;;0.40;;
25549;SDS011;13444;50.562;7.262;2022-10-15T13:10:44;1.45;;;0.20;;
25549;SDS011;13444;50.562;7.262;2022-10-15T13:13:23;0.30;;;0.30;;
25549;SDS011;13444;50.562;7.262;2022-10-15T13:15:55;0.98;;;0.50;;
25549;SDS011;13444;50.562;7.262;2022-10-15T13:18:31;1.80;;;0.40;;
25549;SDS011;13444;50.562;7.262;2022-10-15T13:20:57;0.30;;;0.30;;
25549;SDS011;13444;50.562;7.262;2022-10-15T13:23:24;0.77;;;0.50;;
25549;SDS011;13444;50.562;7.262;2022-10-15T13:25:52;0.60;;;0.47;;
25549;SDS011;13444;50.562;7.262;2022-10-15T13:28:36;0.68;;;0.40;;
25549;SDS011;13444;50.562;7.262;2022-10-15T13:31:07;0.60;;;0.40;;
25549;SDS011;13444;50.562;7.262;2022-10-15T13:33:44;0.77;;;0.40;;
25549;SDS011;13444;50.562;7.262;2022-10-15T13:36:15;0.32;;;0.30;;
25549;SDS011;13444;50.562;7.262;2022-10-15T13:38:49;1.75;;;0.30;;
25549;SDS011;13444;50.562;7.262;2022-10-15T13:41:22;0.30;;;0.20;;
25549;SDS011;13444;50.562;7.262;2022-10-15T13:43:50;1.92;;;0.40;;
25549;SDS011;13444;50.562;7.262;2022-10-15T13:46:18;1.02;;;0.60;;
25549;SDS011;13444;50.562;7.262;2022-10-15T13:48:47;0.80;;;0.60;;
25549;SDS011;13444;50.562;7.262;2022-10-15T13:51:12;0.40;;;0.20;;
25549;SDS011;13444;50.562;7.262;2022-10-15T13:53:41;0.77;;;0.40;;
25549;SDS011;13444;50.562;7.262;2022-10-15T13:56:18;0.40;;;0.32;;
25549;SDS011;13444;50.562;7.262;2022-10-15T13:58:55;0.40;;;0.30;;
25549;SDS011;13444;50.562;7.262;2022-10-15T14:01:26;0.63;;;0.47;;
25549;SDS011;13444;50.562;7.262;2022-10-15T14:03:57;0.47;;;0.40;;
25549;SDS011;13444;50.562;7.262;2022-10-15T14:06:34;0.38;;;0.30;;
25549;SDS011;13444;50.562;7.262;2022-10-15T14:09:21;1.33;;;0.40;;
25549;SDS011;13444;50.562;7.262;2022-10-15T14:11:51;0.45;;;0.32;;
25549;SDS011;13444;50.562;7.262;2022-10-15T14:14:36;0.20;;;0.20;;
25549;SDS011;13444;50.562;7.262;2022-10-15T14:17:09;0.32;;;0.30;;
25549;SDS011;13444;50.562;7.262;2022-10-15T14:19:45;1.13;;;0.88;;
25549;SDS011;13444;50.562;7.262;2022-10-15T14:22:21;0.52;;;0.43;;
25549;SDS011;13444;50.562;7.262;2022-10-15T14:24:51;0.80;;;0.70;;
25549;SDS011;13444;50.562;7.262;2022-10-15T14:27:22;1.20;;;0.30;;
25549;SDS011;13444;50.562;7.262;2022-10-15T14:29:50;1.58;;;1.00;;
25549;SDS011;13444;50.562;7.262;2022-10-15T14:35:28;2.67;;;0.90;;
25549;SDS011;13444;50.562;7.262;2022-10-15T14:38:00;0.50;;;0.50;;
25549;SDS011;13444;50.562;7.262;2022-10-15T14:40:27;0.70;;;0.52;;
25549;SDS011;13444;50.562;7.262;2022-10-15T14:45:20;0.77;;;0.60;;
25549;SDS011;13444;50.562;7.262;2022-10-15T14:47:53;1.25;;;0.50;;
25549;SDS011;13444;50.562;7.262;2022-10-15T14:50:28;0.30;;;0.30;;
25549;SDS011;13444;50.562;7.262;2022-10-15T14:52:56;0.77;;;0.65;;
25549;SDS011;13444;50.562;7.262;2022-10-15T14:55:30;1.85;;;0.70;;
25549;SDS011;13444;50.562;7.262;2022-10-15T14:58:06;0.70;;;0.60;;
25549;SDS011;13444;50.562;7.262;2022-10-15T15:00:37;0.95;;;0.40;;
25549;SDS011;13444;50.562;7.262;2022-10-15T15:03:09;0.50;;;0.38;;
25549;SDS011;13444;50.562;7.262;2022-10-15T15:08:14;0.73;;;0.47;;
25549;SDS011;13444;50.562;7.262;2022-10-15T15:10:40;0.95;;;0.40;;
25549;SDS011;13444;50.562;7.262;2022-10-15T15:13:09;0.50;;;0.47;;
25549;SDS011;13444;50.562;7.262;2022-10-15T15:15:38;0.70;;;0.40;;
25549;SDS011;13444;50.562;7.262;2022-10-15T15:18:07;2.72;;;0.80;;
25549;SDS011;13444;50.562;7.262;2022-10-15T15:20:34;0.95;;;0.63;;
25549;SDS011;13444;50.562;7.262;2022-10-15T15:22:59;1.95;;;0.55;;
25549;SDS011;13444;50.562;7.262;2022-10-15T15:25:29;0.47;;;0.40;;
25549;SDS011;13444;50.562;7.262;2022-10-15T15:27:57;0.63;;;0.55;;
25549;SDS011;13444;50.562;7.262;2022-10-15T15:30:24;0.55;;;0.40;;
25549;SDS011;13444;50.562;7.262;2022-10-15T15:32:51;0.65;;;0.50;;
25549;SDS011;13444;50.562;7.262;2022-10-15T15:35:21;2.03;;;0.60;;
25549;SDS011;13444;50.562;7.262;2022-10-15T15:37:50;1.10;;;0.60;;
25549;SDS011;13444;50.562;7.262;2022-10-15T15:40:16;2.65;;;1.45;;
25549;SDS011;13444;50.562;7.262;2022-10-15T15:42:42;0.63;;;0.40;;
25549;SDS011;13444;50.562;7.262;2022-10-15T15:45:22;2.42;;;0.40;;
25549;SDS011;13444;50.562;7.262;2022-10-15T15:47:49;0.77;;;0.40;;
25549;SDS011;13444;50.562;7.262;2022-10-15T15:50:15;1.15;;;0.50;;
25549;SDS011;13444;50.562;7.262;2022-10-15T15:52:41;0.63;;;0.47;;
25549;SDS011;13444;50.562;7.262;2022-10-15T15:55:07;1.70;;;0.77;;
25549;SDS011;13444;50.562;7.262;2022-10-15T15:57:33;0.40;;;0.38;;
25549;SDS011;13444;50.562;7.262;2022-10-15T15:59:59;0.63;;;0.40;;
25549;SDS011;13444;50.562;7.262;2022-10-15T16:02:24;2.63;;;0.30;;
25549;SDS011;13444;50.562;7.262;2022-10-15T16:04:50;0.98;;;0.40;;
25549;SDS011;13444;50.562;7.262;2022-10-15T16:07:15;3.42;;;0.43;;
25549;SDS011;13444;50.562;7.262;2022-10-15T16:09:41;3.70;;;0.40;;
25549;SDS011;13444;50.562;7.262;2022-10-15T16:12:06;0.70;;;0.40;;
25549;SDS011;13444;50.562;7.262;2022-10-15T16:14:32;1.23;;;0.50;;
25549;SDS011;13444;50.562;7.262;2022-10-15T16:16:58;0.70;;;0.70;;
25549;SDS011;13444;50.562;7.262;2022-10-15T16:19:23;1.92;;;0.70;;
25549;SDS011;13444;50.562;7.262;2022-10-15T16:21:49;0.70;;;0.60;;
25549;SDS011;13444;50.562;7.262;2022-10-15T16:24:15;1.27;;;0.80;;
25549;SDS011;13444;50.562;7.262;2022-10-15T16:26:41;0.82;;;0.70;;
25549;SDS011;13444;50.562;7.262;2022-10-15T16:29:06;2.45;;;0.88;;
25549;SDS011;13444;50.562;7.262;2022-10-15T16:31:32;1.45;;;0.60;;
25549;SDS011;13444;50.562;7.262;2022-10-15T16:34:01;2.63;;;0.50;;
25549;SDS011;13444;50.562;7.262;2022-10-15T16:36:27;2.08;;;0.70;;
25549;SDS011;13444;50.562;7.262;2022-10-15T16:38:53;0.65;;;0.60;;
25549;SDS011;13444;50.562;7.262;2022-10-15T16:41:19;0.70;;;0.52;;
25549;SDS011;13444;50.562;7.262;2022-10-15T16:43:44;1.60;;;0.60;;
25549;SDS011;13444;50.562;7.262;2022-10-15T16:46:11;2.28;;;0.80;;
25549;SDS011;13444;50.562;7.262;2022-10-15T16:48:37;1.30;;;1.00;;